sensor_id;sensor_type;location;lat;lon;timestamp;P1;durP1;ratioP1;P2;durP2;ratioP2
19084;SDS011;9675;51.538;6.728;2022-07-01T00:01:04;3.17;;;1.33;;
19084;SDS011;9675;51.538;6.728;2022-07-01T00:03:32;1.37;;;0.77;;
19084;SDS011;9675;51.538;6.728;2022-07-01T00:06:00;0.97;;;0.67;;
19084;SDS011;9675;51.538;6.728;2022-07-01T00:08:28;1.63;;;0.77;;
19084;SDS011;9675;51.538;6.728;2022-07-01T00:10:56;2.80;;;1.60;;
19084;SDS011;9675;51.538;6.728;2022-07-01T00:13:24;3.87;;;1.70;;
19084;SDS011;9675;51.538;6.728;2022-07-01T00:15:51;1.70;;;1.00;;
19084;SDS011;9675;51.538;6.728;2022-07-01T00:18:18;3.37;;;0.90;;
19084;SDS011;9675;51.538;6.728;2022-07-01T00:20:46;2.13;;;1.27;;
19084;SDS011;9675;51.538;6.728;2022-07-01T00:23:14;2.17;;;1.17;;
19084;SDS011;9675;51.538;6.728;2022-07-01T00:25:42;2.80;;;1.77;;
19084;SDS011;9675;51.538;6.728;2022-07-01T00:28:11;3.07;;;1.43;;
19084;SDS011;9675;51.538;6.728;2022-07-01T00:30:38;1.83;;;1.10;;
19084;SDS011;9675;51.538;6.728;2022-07-01T00:33:05;1.70;;;1.03;;
19084;SDS011;9675;51.538;6.728;2022-07-01T00:35:33;2.70;;;1.10;;
19084;SDS011;9675;51.538;6.728;2022-07-01T00:38:00;1.37;;;0.87;;
19084;SDS011;9675;51.538;6.728;2022-07-01T00:40:27;3.63;;;1.70;;
19084;SDS011;9675;51.538;6.728;2022-07-01T00:42:54;1.47;;;0.80;;
19084;SDS011;9675;51.538;6.728;2022-07-01T00:45:23;3.67;;;1.57;;
19084;SDS011;9675;51.538;6.728;2022-07-01T00:47:50;3.00;;;1.33;;
19084;SDS011;9675;51.538;6.728;2022-07-01T00:50:17;4.60;;;1.50;;
19084;SDS011;9675;51.538;6.728;2022-07-01T00:52:44;3.00;;;1.50;;
19084;SDS011;9675;51.538;6.728;2022-07-01T00:55:12;5.80;;;2.73;;
19084;SDS011;9675;51.538;6.728;2022-07-01T00:57:41;8.83;;;3.13;;
19084;SDS011;9675;51.538;6.728;2022-07-01T01:00:11;4.80;;;1.60;;
19084;SDS011;9675;51.538;6.728;2022-07-01T01:02:43;7.40;;;2.43;;
19084;SDS011;9675;51.538;6.728;2022-07-01T01:05:10;5.87;;;2.93;;
19084;SDS011;9675;51.538;6.728;2022-07-01T01:07:38;6.23;;;3.30;;
19084;SDS011;9675;51.538;6.728;2022-07-01T01:10:06;5.30;;;2.53;;
19084;SDS011;9675;51.538;6.728;2022-07-01T01:12:34;3.10;;;1.53;;
19084;SDS011;9675;51.538;6.728;2022-07-01T01:15:01;4.33;;;2.00;;
19084;SDS011;9675;51.538;6.728;2022-07-01T01:17:29;4.33;;;2.53;;
19084;SDS011;9675;51.538;6.728;2022-07-01T01:19:58;6.13;;;2.93;;
19084;SDS011;9675;51.538;6.728;2022-07-01T01:22:26;5.13;;;2.83;;
19084;SDS011;9675;51.538;6.728;2022-07-01T01:24:53;5.03;;;2.60;;
19084;SDS011;9675;51.538;6.728;2022-07-01T01:27:20;4.37;;;1.87;;
19084;SDS011;9675;51.538;6.728;2022-07-01T01:29:47;3.20;;;1.90;;
19084;SDS011;9675;51.538;6.728;2022-07-01T01:32:15;7.33;;;2.83;;
19084;SDS011;9675;51.538;6.728;2022-07-01T01:34:42;4.47;;;2.07;;
19084;SDS011;9675;51.538;6.728;2022-07-01T01:37:09;2.20;;;1.63;;
19084;SDS011;9675;51.538;6.728;2022-07-01T01:39:37;3.80;;;2.23;;
19084;SDS011;9675;51.538;6.728;2022-07-01T01:42:05;4.67;;;2.43;;
19084;SDS011;9675;51.538;6.728;2022-07-01T01:44:33;3.23;;;1.87;;
19084;SDS011;9675;51.538;6.728;2022-07-01T01:47:00;5.40;;;1.93;;
19084;SDS011;9675;51.538;6.728;2022-07-01T01:49:27;1.97;;;1.30;;
19084;SDS011;9675;51.538;6.728;2022-07-01T01:51:54;3.17;;;1.47;;
19084;SDS011;9675;51.538;6.728;2022-07-01T01:54:24;4.70;;;1.93;;
19084;SDS011;9675;51.538;6.728;2022-07-01T01:56:53;3.67;;;1.90;;
19084;SDS011;9675;51.538;6.728;2022-07-01T01:59:20;4.73;;;1.70;;
19084;SDS011;9675;51.538;6.728;2022-07-01T02:01:47;3.93;;;2.37;;
19084;SDS011;9675;51.538;6.728;2022-07-01T02:04:15;3.73;;;1.20;;
19084;SDS011;9675;51.538;6.728;2022-07-01T02:06:42;4.97;;;1.77;;
19084;SDS011;9675;51.538;6.728;2022-07-01T02:09:09;2.40;;;1.53;;
19084;SDS011;9675;51.538;6.728;2022-07-01T02:11:36;2.47;;;1.30;;
19084;SDS011;9675;51.538;6.728;2022-07-01T02:14:05;3.43;;;1.50;;
19084;SDS011;9675;51.538;6.728;2022-07-01T02:16:32;2.70;;;1.40;;
19084;SDS011;9675;51.538;6.728;2022-07-01T02:18:59;4.57;;;1.80;;
19084;SDS011;9675;51.538;6.728;2022-07-01T02:21:26;2.73;;;1.40;;
19084;SDS011;9675;51.538;6.728;2022-07-01T02:23:53;3.80;;;1.77;;
19084;SDS011;9675;51.538;6.728;2022-07-01T02:26:21;4.20;;;1.93;;
19084;SDS011;9675;51.538;6.728;2022-07-01T02:28:48;2.33;;;1.07;;
19084;SDS011;9675;51.538;6.728;2022-07-01T02:31:16;1.77;;;1.20;;
19084;SDS011;9675;51.538;6.728;2022-07-01T02:33:43;3.23;;;1.70;;
19084;SDS011;9675;51.538;6.728;2022-07-01T02:36:10;3.50;;;1.43;;
19084;SDS011;9675;51.538;6.728;2022-07-01T02:38:37;3.00;;;1.23;;
19084;SDS011;9675;51.538;6.728;2022-07-01T02:41:04;2.77;;;1.43;;
19084;SDS011;9675;51.538;6.728;2022-07-01T02:43:31;3.23;;;1.30;;
19084;SDS011;9675;51.538;6.728;2022-07-01T02:45:59;4.77;;;2.00;;
19084;SDS011;9675;51.538;6.728;2022-07-01T02:48:27;3.60;;;1.53;;
19084;SDS011;9675;51.538;6.728;2022-07-01T02:50:54;4.37;;;1.27;;
19084;SDS011;9675;51.538;6.728;2022-07-01T02:53:21;4.37;;;2.13;;
19084;SDS011;9675;51.538;6.728;2022-07-01T02:55:48;5.17;;;2.17;;
19084;SDS011;9675;51.538;6.728;2022-07-01T02:58:16;3.70;;;1.83;;
19084;SDS011;9675;51.538;6.728;2022-07-01T03:00:44;6.17;;;2.10;;
19084;SDS011;9675;51.538;6.728;2022-07-01T03:03:13;2.87;;;1.60;;
19084;SDS011;9675;51.538;6.728;2022-07-01T03:05:42;4.03;;;2.10;;
19084;SDS011;9675;51.538;6.728;2022-07-01T03:08:09;5.03;;;1.80;;
19084;SDS011;9675;51.538;6.728;2022-07-01T03:10:36;2.53;;;1.80;;
19084;SDS011;9675;51.538;6.728;2022-07-01T03:13:03;6.20;;;1.33;;
19084;SDS011;9675;51.538;6.728;2022-07-01T03:15:30;3.90;;;1.70;;
19084;SDS011;9675;51.538;6.728;2022-07-01T03:17:57;2.93;;;1.70;;
19084;SDS011;9675;51.538;6.728;2022-07-01T03:20:24;2.80;;;1.80;;
19084;SDS011;9675;51.538;6.728;2022-07-01T03:22:53;1.90;;;1.47;;
19084;SDS011;9675;51.538;6.728;2022-07-01T03:25:20;4.17;;;1.77;;
19084;SDS011;9675;51.538;6.728;2022-07-01T03:27:47;4.63;;;1.33;;
19084;SDS011;9675;51.538;6.728;2022-07-01T03:30:15;2.30;;;1.47;;
19084;SDS011;9675;51.538;6.728;2022-07-01T03:32:43;3.40;;;1.83;;
19084;SDS011;9675;51.538;6.728;2022-07-01T03:35:10;2.90;;;1.37;;
19084;SDS011;9675;51.538;6.728;2022-07-01T03:37:55;2.70;;;1.60;;
19084;SDS011;9675;51.538;6.728;2022-07-01T03:40:23;5.90;;;2.70;;
19084;SDS011;9675;51.538;6.728;2022-07-01T03:42:50;1.43;;;0.90;;
19084;SDS011;9675;51.538;6.728;2022-07-01T03:45:17;2.30;;;1.23;;
19084;SDS011;9675;51.538;6.728;2022-07-01T03:47:45;10.27;;;1.43;;
19084;SDS011;9675;51.538;6.728;2022-07-01T03:50:13;2.30;;;1.33;;
19084;SDS011;9675;51.538;6.728;2022-07-01T03:52:40;3.10;;;1.73;;
19084;SDS011;9675;51.538;6.728;2022-07-01T03:55:09;4.80;;;1.30;;
19084;SDS011;9675;51.538;6.728;2022-07-01T03:57:36;1.90;;;1.47;;
19084;SDS011;9675;51.538;6.728;2022-07-01T04:00:04;3.13;;;1.83;;
19084;SDS011;9675;51.538;6.728;2022-07-01T04:02:33;1.87;;;0.80;;
19084;SDS011;9675;51.538;6.728;2022-07-01T04:05:00;3.03;;;1.20;;
19084;SDS011;9675;51.538;6.728;2022-07-01T04:07:28;2.27;;;1.07;;
19084;SDS011;9675;51.538;6.728;2022-07-01T04:09:55;3.33;;;1.33;;
19084;SDS011;9675;51.538;6.728;2022-07-01T04:12:23;3.43;;;1.40;;
19084;SDS011;9675;51.538;6.728;2022-07-01T04:14:51;2.00;;;1.13;;
19084;SDS011;9675;51.538;6.728;2022-07-01T04:17:18;3.57;;;1.23;;
19084;SDS011;9675;51.538;6.728;2022-07-01T04:19:45;2.13;;;1.33;;
19084;SDS011;9675;51.538;6.728;2022-07-01T04:22:13;2.07;;;1.27;;
19084;SDS011;9675;51.538;6.728;2022-07-01T04:24:57;3.70;;;1.73;;
19084;SDS011;9675;51.538;6.728;2022-07-01T04:27:27;2.87;;;1.07;;
19084;SDS011;9675;51.538;6.728;2022-07-01T04:29:54;4.50;;;1.10;;
19084;SDS011;9675;51.538;6.728;2022-07-01T04:32:21;3.83;;;1.83;;
19084;SDS011;9675;51.538;6.728;2022-07-01T04:34:49;2.43;;;1.40;;
19084;SDS011;9675;51.538;6.728;2022-07-01T04:37:16;2.77;;;1.73;;
19084;SDS011;9675;51.538;6.728;2022-07-01T04:39:44;3.30;;;1.40;;
19084;SDS011;9675;51.538;6.728;2022-07-01T04:42:12;3.97;;;2.03;;
19084;SDS011;9675;51.538;6.728;2022-07-01T04:44:41;3.03;;;1.40;;
19084;SDS011;9675;51.538;6.728;2022-07-01T04:47:08;2.17;;;0.90;;
19084;SDS011;9675;51.538;6.728;2022-07-01T04:49:35;5.53;;;2.13;;
19084;SDS011;9675;51.538;6.728;2022-07-01T04:52:03;3.97;;;2.20;;
19084;SDS011;9675;51.538;6.728;2022-07-01T04:54:30;2.40;;;1.70;;
19084;SDS011;9675;51.538;6.728;2022-07-01T04:57:01;4.77;;;1.70;;
19084;SDS011;9675;51.538;6.728;2022-07-01T04:59:28;2.67;;;1.40;;
19084;SDS011;9675;51.538;6.728;2022-07-01T05:01:56;2.87;;;1.50;;
19084;SDS011;9675;51.538;6.728;2022-07-01T05:04:24;2.43;;;1.50;;
19084;SDS011;9675;51.538;6.728;2022-07-01T05:06:53;4.33;;;2.00;;
19084;SDS011;9675;51.538;6.728;2022-07-01T05:09:20;3.00;;;1.70;;
19084;SDS011;9675;51.538;6.728;2022-07-01T05:11:47;3.27;;;1.47;;
19084;SDS011;9675;51.538;6.728;2022-07-01T05:14:14;2.20;;;1.30;;
19084;SDS011;9675;51.538;6.728;2022-07-01T05:16:42;2.00;;;1.13;;
19084;SDS011;9675;51.538;6.728;2022-07-01T05:19:10;2.63;;;1.40;;
19084;SDS011;9675;51.538;6.728;2022-07-01T05:21:55;2.90;;;1.13;;
19084;SDS011;9675;51.538;6.728;2022-07-01T05:24:22;3.67;;;1.87;;
19084;SDS011;9675;51.538;6.728;2022-07-01T05:26:49;2.70;;;1.27;;
19084;SDS011;9675;51.538;6.728;2022-07-01T05:29:17;2.03;;;1.63;;
19084;SDS011;9675;51.538;6.728;2022-07-01T05:31:44;3.13;;;1.67;;
19084;SDS011;9675;51.538;6.728;2022-07-01T05:34:13;4.07;;;1.50;;
19084;SDS011;9675;51.538;6.728;2022-07-01T05:36:40;2.00;;;1.20;;
19084;SDS011;9675;51.538;6.728;2022-07-01T05:39:07;1.40;;;0.97;;
19084;SDS011;9675;51.538;6.728;2022-07-01T05:41:34;1.50;;;1.03;;
19084;SDS011;9675;51.538;6.728;2022-07-01T05:44:02;2.00;;;1.40;;
19084;SDS011;9675;51.538;6.728;2022-07-01T05:46:29;3.00;;;1.00;;
19084;SDS011;9675;51.538;6.728;2022-07-01T05:48:56;3.13;;;1.30;;
19084;SDS011;9675;51.538;6.728;2022-07-01T05:51:25;1.33;;;0.97;;
19084;SDS011;9675;51.538;6.728;2022-07-01T05:53:52;1.77;;;0.70;;
19084;SDS011;9675;51.538;6.728;2022-07-01T05:56:19;3.03;;;1.60;;
19084;SDS011;9675;51.538;6.728;2022-07-01T05:58:46;2.20;;;1.10;;
19084;SDS011;9675;51.538;6.728;2022-07-01T06:01:13;5.13;;;1.20;;
19084;SDS011;9675;51.538;6.728;2022-07-01T06:03:40;3.73;;;1.47;;
19084;SDS011;9675;51.538;6.728;2022-07-01T06:06:07;2.77;;;1.37;;
19084;SDS011;9675;51.538;6.728;2022-07-01T06:08:36;2.10;;;1.27;;
19084;SDS011;9675;51.538;6.728;2022-07-01T06:11:03;0.60;;;0.60;;
19084;SDS011;9675;51.538;6.728;2022-07-01T06:13:30;3.80;;;1.53;;
19084;SDS011;9675;51.538;6.728;2022-07-01T06:15:58;1.40;;;1.03;;
19084;SDS011;9675;51.538;6.728;2022-07-01T06:18:25;2.70;;;1.73;;
19084;SDS011;9675;51.538;6.728;2022-07-01T06:20:52;2.10;;;1.20;;
19084;SDS011;9675;51.538;6.728;2022-07-01T06:23:19;2.27;;;1.30;;
19084;SDS011;9675;51.538;6.728;2022-07-01T06:25:48;1.13;;;0.87;;
19084;SDS011;9675;51.538;6.728;2022-07-01T06:28:15;5.13;;;1.20;;
19084;SDS011;9675;51.538;6.728;2022-07-01T06:30:43;3.43;;;1.23;;
19084;SDS011;9675;51.538;6.728;2022-07-01T06:33:11;11.83;;;1.70;;
19084;SDS011;9675;51.538;6.728;2022-07-01T06:35:39;1.60;;;0.93;;
19084;SDS011;9675;51.538;6.728;2022-07-01T06:38:06;2.00;;;1.30;;
19084;SDS011;9675;51.538;6.728;2022-07-01T06:40:34;0.87;;;0.77;;
19084;SDS011;9675;51.538;6.728;2022-07-01T06:43:02;3.57;;;1.10;;
19084;SDS011;9675;51.538;6.728;2022-07-01T06:45:30;0.87;;;0.77;;
19084;SDS011;9675;51.538;6.728;2022-07-01T06:47:57;1.37;;;0.97;;
19084;SDS011;9675;51.538;6.728;2022-07-01T06:50:24;1.73;;;0.90;;
19084;SDS011;9675;51.538;6.728;2022-07-01T06:52:51;4.50;;;1.53;;
19084;SDS011;9675;51.538;6.728;2022-07-01T06:55:18;3.40;;;1.30;;
19084;SDS011;9675;51.538;6.728;2022-07-01T06:57:46;2.40;;;1.10;;
19084;SDS011;9675;51.538;6.728;2022-07-01T07:00:14;1.37;;;0.70;;
19084;SDS011;9675;51.538;6.728;2022-07-01T07:02:42;4.50;;;0.97;;
19084;SDS011;9675;51.538;6.728;2022-07-01T07:05:09;2.07;;;1.30;;
19084;SDS011;9675;51.538;6.728;2022-07-01T07:07:36;1.33;;;1.00;;
19084;SDS011;9675;51.538;6.728;2022-07-01T07:10:04;3.63;;;1.30;;
19084;SDS011;9675;51.538;6.728;2022-07-01T07:12:32;1.60;;;1.10;;
19084;SDS011;9675;51.538;6.728;2022-07-01T07:14:59;2.43;;;1.30;;
19084;SDS011;9675;51.538;6.728;2022-07-01T07:17:27;1.83;;;1.03;;
19084;SDS011;9675;51.538;6.728;2022-07-01T07:19:55;0.80;;;0.60;;
19084;SDS011;9675;51.538;6.728;2022-07-01T07:22:22;2.23;;;1.13;;
19084;SDS011;9675;51.538;6.728;2022-07-01T07:24:50;0.97;;;0.80;;
19084;SDS011;9675;51.538;6.728;2022-07-01T07:27:17;0.80;;;0.63;;
19084;SDS011;9675;51.538;6.728;2022-07-01T07:29:44;4.17;;;1.37;;
19084;SDS011;9675;51.538;6.728;2022-07-01T07:32:11;2.07;;;1.20;;
19084;SDS011;9675;51.538;6.728;2022-07-01T07:34:40;2.33;;;1.27;;
19084;SDS011;9675;51.538;6.728;2022-07-01T07:37:07;4.37;;;1.17;;
19084;SDS011;9675;51.538;6.728;2022-07-01T07:39:34;2.30;;;1.00;;
19084;SDS011;9675;51.538;6.728;2022-07-01T07:42:02;1.40;;;0.90;;
19084;SDS011;9675;51.538;6.728;2022-07-01T07:44:30;1.20;;;0.80;;
19084;SDS011;9675;51.538;6.728;2022-07-01T07:46:58;0.60;;;0.60;;
19084;SDS011;9675;51.538;6.728;2022-07-01T07:49:29;0.97;;;0.70;;
19084;SDS011;9675;51.538;6.728;2022-07-01T07:51:57;0.60;;;0.53;;
19084;SDS011;9675;51.538;6.728;2022-07-01T07:54:24;2.70;;;2.00;;
19084;SDS011;9675;51.538;6.728;2022-07-01T07:56:51;2.43;;;1.13;;
19084;SDS011;9675;51.538;6.728;2022-07-01T07:59:19;4.80;;;1.40;;
19084;SDS011;9675;51.538;6.728;2022-07-01T08:01:46;1.83;;;1.00;;
19084;SDS011;9675;51.538;6.728;2022-07-01T08:04:13;1.40;;;0.40;;
19084;SDS011;9675;51.538;6.728;2022-07-01T08:06:40;2.33;;;1.57;;
19084;SDS011;9675;51.538;6.728;2022-07-01T08:09:08;1.03;;;0.77;;
19084;SDS011;9675;51.538;6.728;2022-07-01T08:11:36;1.10;;;0.80;;
19084;SDS011;9675;51.538;6.728;2022-07-01T08:14:03;1.93;;;1.33;;
19084;SDS011;9675;51.538;6.728;2022-07-01T08:16:30;1.40;;;0.97;;
19084;SDS011;9675;51.538;6.728;2022-07-01T08:18:58;1.10;;;0.53;;
19084;SDS011;9675;51.538;6.728;2022-07-01T08:21:25;2.77;;;1.20;;
19084;SDS011;9675;51.538;6.728;2022-07-01T08:23:52;1.97;;;1.20;;
19084;SDS011;9675;51.538;6.728;2022-07-01T08:26:20;0.70;;;0.60;;
19084;SDS011;9675;51.538;6.728;2022-07-01T08:28:47;0.47;;;0.47;;
19084;SDS011;9675;51.538;6.728;2022-07-01T08:31:15;1.90;;;1.10;;
19084;SDS011;9675;51.538;6.728;2022-07-01T08:33:42;2.40;;;0.80;;
19084;SDS011;9675;51.538;6.728;2022-07-01T08:36:09;0.70;;;0.60;;
19084;SDS011;9675;51.538;6.728;2022-07-01T08:38:38;2.60;;;1.33;;
19084;SDS011;9675;51.538;6.728;2022-07-01T08:41:07;1.53;;;1.10;;
19084;SDS011;9675;51.538;6.728;2022-07-01T08:43:36;1.07;;;0.73;;
19084;SDS011;9675;51.538;6.728;2022-07-01T08:46:04;3.03;;;0.60;;
19084;SDS011;9675;51.538;6.728;2022-07-01T08:48:34;1.80;;;0.90;;
19084;SDS011;9675;51.538;6.728;2022-07-01T08:51:02;3.17;;;0.90;;
19084;SDS011;9675;51.538;6.728;2022-07-01T08:53:31;1.03;;;0.60;;
19084;SDS011;9675;51.538;6.728;2022-07-01T08:55:58;0.50;;;0.50;;
19084;SDS011;9675;51.538;6.728;2022-07-01T08:58:44;1.17;;;0.60;;
19084;SDS011;9675;51.538;6.728;2022-07-01T09:01:12;0.60;;;0.40;;
19084;SDS011;9675;51.538;6.728;2022-07-01T09:03:41;1.30;;;0.70;;
19084;SDS011;9675;51.538;6.728;2022-07-01T09:06:13;0.50;;;0.50;;
19084;SDS011;9675;51.538;6.728;2022-07-01T09:08:42;2.00;;;0.80;;
19084;SDS011;9675;51.538;6.728;2022-07-01T09:11:13;1.00;;;0.53;;
19084;SDS011;9675;51.538;6.728;2022-07-01T09:13:44;1.83;;;0.43;;
19084;SDS011;9675;51.538;6.728;2022-07-01T09:16:32;0.33;;;0.33;;
19084;SDS011;9675;51.538;6.728;2022-07-01T09:19:07;0.27;;;0.20;;
19084;SDS011;9675;51.538;6.728;2022-07-01T09:21:34;1.03;;;0.50;;
19084;SDS011;9675;51.538;6.728;2022-07-01T09:24:03;0.50;;;0.50;;
19084;SDS011;9675;51.538;6.728;2022-07-01T09:26:51;0.60;;;0.43;;
19084;SDS011;9675;51.538;6.728;2022-07-01T09:29:24;0.83;;;0.47;;
19084;SDS011;9675;51.538;6.728;2022-07-01T09:31:59;0.57;;;0.37;;
19084;SDS011;9675;51.538;6.728;2022-07-01T09:34:32;0.30;;;0.30;;
19084;SDS011;9675;51.538;6.728;2022-07-01T09:37:00;0.27;;;0.23;;
19084;SDS011;9675;51.538;6.728;2022-07-01T09:39:29;0.30;;;0.30;;
19084;SDS011;9675;51.538;6.728;2022-07-01T09:41:56;0.77;;;0.23;;
19084;SDS011;9675;51.538;6.728;2022-07-01T09:44:25;0.60;;;0.40;;
19084;SDS011;9675;51.538;6.728;2022-07-01T09:46:54;2.10;;;0.33;;
19084;SDS011;9675;51.538;6.728;2022-07-01T09:49:26;0.27;;;0.27;;
19084;SDS011;9675;51.538;6.728;2022-07-01T09:51:53;3.10;;;0.40;;
19084;SDS011;9675;51.538;6.728;2022-07-01T09:54:20;0.47;;;0.40;;
19084;SDS011;9675;51.538;6.728;2022-07-01T09:56:47;0.50;;;0.20;;
19084;SDS011;9675;51.538;6.728;2022-07-01T09:59:14;0.30;;;0.20;;
19084;SDS011;9675;51.538;6.728;2022-07-01T10:01:43;0.20;;;0.20;;
19084;SDS011;9675;51.538;6.728;2022-07-01T10:04:10;3.90;;;0.30;;
19084;SDS011;9675;51.538;6.728;2022-07-01T10:06:51;0.33;;;0.23;;
19084;SDS011;9675;51.538;6.728;2022-07-01T10:12:37;0.27;;;0.27;;
19084;SDS011;9675;51.538;6.728;2022-07-01T10:15:09;5.73;;;0.30;;
19084;SDS011;9675;51.538;6.728;2022-07-01T10:17:44;3.40;;;0.87;;
19084;SDS011;9675;51.538;6.728;2022-07-01T10:20:14;1.70;;;0.47;;
19084;SDS011;9675;51.538;6.728;2022-07-01T10:22:44;0.40;;;0.40;;
19084;SDS011;9675;51.538;6.728;2022-07-01T10:28:14;0.30;;;0.30;;
19084;SDS011;9675;51.538;6.728;2022-07-01T10:30:53;0.40;;;0.20;;
19084;SDS011;9675;51.538;6.728;2022-07-01T10:33:30;1.70;;;0.20;;
19084;SDS011;9675;51.538;6.728;2022-07-01T10:36:10;0.10;;;0.10;;
19084;SDS011;9675;51.538;6.728;2022-07-01T10:41:55;1.83;;;0.70;;
19084;SDS011;9675;51.538;6.728;2022-07-01T10:44:28;1.33;;;0.50;;
19084;SDS011;9675;51.538;6.728;2022-07-01T10:47:02;1.13;;;0.20;;
19084;SDS011;9675;51.538;6.728;2022-07-01T10:49:52;0.20;;;0.20;;
19084;SDS011;9675;51.538;6.728;2022-07-01T10:52:25;0.20;;;0.20;;
19084;SDS011;9675;51.538;6.728;2022-07-01T10:54:53;0.27;;;0.20;;
19084;SDS011;9675;51.538;6.728;2022-07-01T10:57:26;0.30;;;0.30;;
19084;SDS011;9675;51.538;6.728;2022-07-01T11:05:54;0.97;;;0.20;;
19084;SDS011;9675;51.538;6.728;2022-07-01T11:08:22;0.93;;;0.53;;
19084;SDS011;9675;51.538;6.728;2022-07-01T11:10:50;1.20;;;0.37;;
19084;SDS011;9675;51.538;6.728;2022-07-01T11:13:21;0.70;;;0.27;;
19084;SDS011;9675;51.538;6.728;2022-07-01T11:15:50;0.50;;;0.30;;
19084;SDS011;9675;51.538;6.728;2022-07-01T11:18:18;0.43;;;0.27;;
19084;SDS011;9675;51.538;6.728;2022-07-01T11:20:51;0.57;;;0.20;;
19084;SDS011;9675;51.538;6.728;2022-07-01T11:23:29;0.20;;;0.20;;
19084;SDS011;9675;51.538;6.728;2022-07-01T11:25:56;0.20;;;0.17;;
19084;SDS011;9675;51.538;6.728;2022-07-01T11:28:23;0.63;;;0.20;;
19084;SDS011;9675;51.538;6.728;2022-07-01T11:30:57;0.20;;;0.20;;
19084;SDS011;9675;51.538;6.728;2022-07-01T11:33:25;1.50;;;0.23;;
19084;SDS011;9675;51.538;6.728;2022-07-01T11:35:54;0.97;;;0.40;;
19084;SDS011;9675;51.538;6.728;2022-07-01T11:38:44;0.40;;;0.20;;
19084;SDS011;9675;51.538;6.728;2022-07-01T11:41:29;2.13;;;0.40;;
19084;SDS011;9675;51.538;6.728;2022-07-01T11:43:56;2.73;;;0.43;;
19084;SDS011;9675;51.538;6.728;2022-07-01T11:46:23;0.20;;;0.17;;
19084;SDS011;9675;51.538;6.728;2022-07-01T11:48:51;3.20;;;0.37;;
19084;SDS011;9675;51.538;6.728;2022-07-01T11:51:21;0.27;;;0.27;;
19084;SDS011;9675;51.538;6.728;2022-07-01T11:53:52;0.47;;;0.10;;
19084;SDS011;9675;51.538;6.728;2022-07-01T11:56:27;0.13;;;0.10;;
19084;SDS011;9675;51.538;6.728;2022-07-01T11:58:56;0.53;;;0.17;;
19084;SDS011;9675;51.538;6.728;2022-07-01T12:01:27;0.00;;;0.00;;
19084;SDS011;9675;51.538;6.728;2022-07-01T12:03:58;0.10;;;0.10;;
19084;SDS011;9675;51.538;6.728;2022-07-01T12:06:28;0.70;;;0.40;;
19084;SDS011;9675;51.538;6.728;2022-07-01T12:08:57;0.10;;;0.10;;
19084;SDS011;9675;51.538;6.728;2022-07-01T12:11:25;0.33;;;0.23;;
19084;SDS011;9675;51.538;6.728;2022-07-01T12:13:54;0.30;;;0.20;;
19084;SDS011;9675;51.538;6.728;2022-07-01T12:16:23;1.10;;;0.10;;
19084;SDS011;9675;51.538;6.728;2022-07-01T12:18:53;0.20;;;0.20;;
19084;SDS011;9675;51.538;6.728;2022-07-01T12:21:23;2.40;;;0.40;;
19084;SDS011;9675;51.538;6.728;2022-07-01T12:24:11;0.27;;;0.10;;
19084;SDS011;9675;51.538;6.728;2022-07-01T12:26:47;3.93;;;0.20;;
19084;SDS011;9675;51.538;6.728;2022-07-01T12:29:19;0.10;;;0.10;;
19084;SDS011;9675;51.538;6.728;2022-07-01T12:31:55;0.20;;;0.20;;
19084;SDS011;9675;51.538;6.728;2022-07-01T12:34:36;0.13;;;0.13;;
19084;SDS011;9675;51.538;6.728;2022-07-01T12:37:08;0.93;;;0.13;;
19084;SDS011;9675;51.538;6.728;2022-07-01T12:39:43;0.23;;;0.20;;
19084;SDS011;9675;51.538;6.728;2022-07-01T12:42:22;0.40;;;0.23;;
19084;SDS011;9675;51.538;6.728;2022-07-01T12:44:52;1.60;;;0.30;;
19084;SDS011;9675;51.538;6.728;2022-07-01T12:47:25;0.13;;;0.13;;
19084;SDS011;9675;51.538;6.728;2022-07-01T12:50:14;0.40;;;0.20;;
19084;SDS011;9675;51.538;6.728;2022-07-01T12:52:55;1.53;;;0.20;;
19084;SDS011;9675;51.538;6.728;2022-07-01T12:55:27;0.07;;;0.07;;
19084;SDS011;9675;51.538;6.728;2022-07-01T12:57:58;3.97;;;0.30;;
19084;SDS011;9675;51.538;6.728;2022-07-01T13:00:26;1.13;;;0.10;;
19084;SDS011;9675;51.538;6.728;2022-07-01T13:02:56;0.40;;;0.40;;
19084;SDS011;9675;51.538;6.728;2022-07-01T13:05:26;0.20;;;0.10;;
19084;SDS011;9675;51.538;6.728;2022-07-01T13:07:56;0.10;;;0.10;;
19084;SDS011;9675;51.538;6.728;2022-07-01T13:10:24;0.00;;;0.00;;
19084;SDS011;9675;51.538;6.728;2022-07-01T13:12:53;0.20;;;0.20;;
19084;SDS011;9675;51.538;6.728;2022-07-01T13:15:20;0.00;;;0.00;;
19084;SDS011;9675;51.538;6.728;2022-07-01T13:17:48;0.27;;;0.23;;
19084;SDS011;9675;51.538;6.728;2022-07-01T13:20:16;1.67;;;0.37;;
19084;SDS011;9675;51.538;6.728;2022-07-01T13:22:43;0.27;;;0.10;;
19084;SDS011;9675;51.538;6.728;2022-07-01T13:25:11;0.63;;;0.20;;
19084;SDS011;9675;51.538;6.728;2022-07-01T13:27:39;0.23;;;0.20;;
19084;SDS011;9675;51.538;6.728;2022-07-01T13:30:10;0.20;;;0.10;;
19084;SDS011;9675;51.538;6.728;2022-07-01T13:32:38;0.27;;;0.10;;
19084;SDS011;9675;51.538;6.728;2022-07-01T13:35:07;0.20;;;0.10;;
19084;SDS011;9675;51.538;6.728;2022-07-01T13:37:35;0.23;;;0.13;;
19084;SDS011;9675;51.538;6.728;2022-07-01T13:40:03;0.73;;;0.10;;
19084;SDS011;9675;51.538;6.728;2022-07-01T13:42:32;0.20;;;0.10;;
19084;SDS011;9675;51.538;6.728;2022-07-01T13:45:00;0.20;;;0.17;;
19084;SDS011;9675;51.538;6.728;2022-07-01T13:47:28;0.90;;;0.10;;
19084;SDS011;9675;51.538;6.728;2022-07-01T13:49:56;0.23;;;0.23;;
19084;SDS011;9675;51.538;6.728;2022-07-01T13:52:23;0.07;;;0.07;;
19084;SDS011;9675;51.538;6.728;2022-07-01T13:54:53;0.83;;;0.10;;
19084;SDS011;9675;51.538;6.728;2022-07-01T13:57:20;0.40;;;0.20;;
19084;SDS011;9675;51.538;6.728;2022-07-01T13:59:47;0.20;;;0.20;;
19084;SDS011;9675;51.538;6.728;2022-07-01T14:02:14;0.30;;;0.20;;
19084;SDS011;9675;51.538;6.728;2022-07-01T14:04:45;0.60;;;0.10;;
19084;SDS011;9675;51.538;6.728;2022-07-01T14:07:15;1.60;;;0.67;;
19084;SDS011;9675;51.538;6.728;2022-07-01T14:09:42;0.40;;;0.20;;
19084;SDS011;9675;51.538;6.728;2022-07-01T14:12:10;0.40;;;0.10;;
19084;SDS011;9675;51.538;6.728;2022-07-01T14:14:40;0.27;;;0.10;;
19084;SDS011;9675;51.538;6.728;2022-07-01T14:17:08;0.10;;;0.10;;
19084;SDS011;9675;51.538;6.728;2022-07-01T14:19:35;0.10;;;0.10;;
19084;SDS011;9675;51.538;6.728;2022-07-01T14:22:04;0.13;;;0.13;;
19084;SDS011;9675;51.538;6.728;2022-07-01T14:24:33;0.40;;;0.30;;
19084;SDS011;9675;51.538;6.728;2022-07-01T14:27:00;0.20;;;0.20;;
19084;SDS011;9675;51.538;6.728;2022-07-01T14:29:28;0.43;;;0.20;;
19084;SDS011;9675;51.538;6.728;2022-07-01T14:31:55;0.50;;;0.10;;
19084;SDS011;9675;51.538;6.728;2022-07-01T14:34:24;0.10;;;0.10;;
19084;SDS011;9675;51.538;6.728;2022-07-01T14:36:51;0.23;;;0.20;;
19084;SDS011;9675;51.538;6.728;2022-07-01T14:39:20;0.67;;;0.17;;
19084;SDS011;9675;51.538;6.728;2022-07-01T14:41:47;0.40;;;0.20;;
19084;SDS011;9675;51.538;6.728;2022-07-01T14:44:16;0.10;;;0.10;;
19084;SDS011;9675;51.538;6.728;2022-07-01T14:46:43;0.20;;;0.20;;
19084;SDS011;9675;51.538;6.728;2022-07-01T14:49:11;0.30;;;0.30;;
19084;SDS011;9675;51.538;6.728;2022-07-01T14:51:41;0.80;;;0.20;;
19084;SDS011;9675;51.538;6.728;2022-07-01T14:54:08;0.33;;;0.10;;
19084;SDS011;9675;51.538;6.728;2022-07-01T14:56:38;0.63;;;0.10;;
19084;SDS011;9675;51.538;6.728;2022-07-01T14:59:05;2.30;;;0.60;;
19084;SDS011;9675;51.538;6.728;2022-07-01T15:01:33;0.53;;;0.30;;
19084;SDS011;9675;51.538;6.728;2022-07-01T15:04:00;2.27;;;0.43;;
19084;SDS011;9675;51.538;6.728;2022-07-01T15:06:27;0.10;;;0.10;;
19084;SDS011;9675;51.538;6.728;2022-07-01T15:08:54;0.43;;;0.23;;
19084;SDS011;9675;51.538;6.728;2022-07-01T15:11:21;0.40;;;0.40;;
19084;SDS011;9675;51.538;6.728;2022-07-01T15:13:50;0.80;;;0.30;;
19084;SDS011;9675;51.538;6.728;2022-07-01T15:16:17;0.20;;;0.20;;
19084;SDS011;9675;51.538;6.728;2022-07-01T15:18:44;0.63;;;0.20;;
19084;SDS011;9675;51.538;6.728;2022-07-01T15:21:11;0.20;;;0.20;;
19084;SDS011;9675;51.538;6.728;2022-07-01T15:23:38;0.83;;;0.30;;
19084;SDS011;9675;51.538;6.728;2022-07-01T15:26:05;0.10;;;0.10;;